Steele City, NE (68440)

5:51 AM CST on February 24, 2017 (GMT -0600)
Rock Creek | | Change Station

Elev 1368 ft 40.10 °N, 97.09 °W | Updated 34 seconds ago

Overcast
Overcast
30.5 °F
Feels Like 24 °F
N
6.0
Wind Variable Wind from NNE

Today
High -- | Low -- °F
--% Chance of Precip.
Yesterday
High -- | Low -- °F
Precip. -- in
Pressure 29.66 in
Visibility 4.0 miles
Clouds Overcast 600 ft
Windchill 24 °F
Dew Point 29 °F
Humidity 95%
Rainfall 0.02 in
Snow Depth Not available.
7:08 AM 6:14 PM
Waning Crescent, 5% visible
METAR KBIE 241135Z AUTO 35018G22KT 4SM UP OVC006 00/00 A2966 RMK AO2 T00000000
Pressure 29.66 in
Visibility 4.0 miles
Clouds Overcast 600 ft
Windchill 24 °F
Dew Point 29 °F
Humidity 95%
Rainfall 0.02 in
Snow Depth Not available.
7:08 AM 6:14 PM
Waning Crescent, 5% visible
METAR KBIE 241135Z AUTO 35018G22KT 4SM UP OVC006 00/00 A2966 RMK AO2 T00000000

Get Your Daily Forecast Email!

Thanks for signing up!

Be on the lookout for a verification email in your inbox.

You'll start receiving the daily forecast at 8 AM.

×

10-Day Weather Forecast

Almanac

Astronomy

Feb. 24, 2017 Rise Set
Actual Time
Civil Twilight
Nautical Twilight
Astronomical Twilight
Moon
Length of Visible Light
Length of Day
Tomorrow will be .
, % of the Moon is Illuminated

Today's Extremes

State Highs State Lows

Community

WunderPhotos

Upload Photos

1,962,540 photos uploaded!

WunderBlog® & News

Nearby

Air Quality

  Air Quality AQ Index Pollutant
Not available.

Snow Depth

Station Depth Elevation

Earthquake Activity

City Distance Mag. Time & Date
Minimum magnitude displayed is 2.5.

Coastal Water Temperatures

Place Temperature

Stations

Nearby Weather Stations

Station Location Temp. Windchill Dew Point Humidity Wind Precip. Elev Updated Type
                   

Watches & Warnings

There are currently no watches in effect.